createdAt,value
2018-02-19T00:00:22.129Z,26.42
2018-02-19T00:02:50.274Z,26.42
2018-02-19T00:05:18.394Z,26.60
2018-02-19T00:07:47.303Z,24.20
2018-02-19T00:10:15.421Z,24.80
2018-02-19T00:12:43.569Z,25.17
2018-02-19T00:15:11.702Z,24.70
2018-02-19T00:17:40.597Z,25.15
2018-02-19T00:20:08.717Z,26.85
2018-02-19T00:22:36.867Z,23.62
2018-02-19T00:25:04.989Z,24.48
2018-02-19T00:27:33.123Z,23.95
2018-02-19T00:30:01.246Z,25.65
2018-02-19T00:32:30.145Z,24.10
2018-02-19T00:34:58.312Z,25.23
2018-02-19T00:37:27.233Z,26.40
2018-02-19T00:39:55.371Z,23.98
2018-02-19T00:42:24.272Z,23.35
2018-02-19T00:44:52.432Z,26.42
2018-02-19T00:47:20.580Z,23.40
2018-02-19T00:49:48.709Z,23.58
2018-02-19T00:52:16.853Z,23.50
2018-02-19T00:54:44.998Z,22.40
2018-02-19T00:57:13.134Z,25.08
2018-02-19T00:59:41.260Z,24.23
2018-02-19T01:02:10.166Z,20.80
2018-02-19T01:04:38.296Z,24.73
2018-02-19T01:07:06.437Z,23.40
2018-02-19T01:09:34.577Z,24.60
2018-02-19T01:12:02.719Z,23.92
2018-02-19T01:14:30.843Z,21.87
2018-02-19T01:16:58.981Z,23.15
2018-02-19T01:19:27.889Z,23.55
2018-02-19T01:21:56.020Z,24.17
2018-02-19T01:24:24.180Z,22.13
2018-02-19T01:26:52.320Z,22.02
2018-02-19T01:29:20.437Z,21.27
2018-02-19T01:31:49.345Z,22.48
2018-02-19T01:34:18.243Z,23.30
2018-02-19T01:36:46.390Z,21.27
2018-02-19T01:39:14.509Z,23.20
2018-02-19T01:41:42.654Z,21.50
2018-02-19T01:44:10.790Z,22.23
2018-02-19T01:46:38.924Z,22.52
2018-02-19T01:49:07.062Z,22.75
2018-02-19T01:51:35.956Z,21.02
2018-02-19T01:54:04.097Z,20.67
2018-02-19T01:56:32.237Z,20.02
2018-02-19T01:59:00.357Z,22.42
2018-02-19T02:01:29.263Z,21.90
2018-02-19T02:03:58.144Z,21.80
2018-02-19T02:06:27.048Z,21.20
2018-02-19T02:08:55.170Z,21.65
2018-02-19T02:11:23.310Z,20.23
2018-02-19T02:13:51.432Z,22.70
2018-02-19T02:16:20.317Z,25.67
2018-02-19T02:18:48.458Z,26.23
2018-02-19T02:21:16.593Z,22.58
2018-02-19T02:23:44.728Z,25.05
2018-02-19T02:26:12.896Z,24.40
2018-02-19T02:28:41.117Z,22.58
2018-02-19T02:31:09.346Z,23.52
2018-02-19T02:33:37.489Z,22.48
2018-02-19T02:36:05.632Z,22.10
2018-02-19T02:38:33.776Z,21.15
2018-02-19T02:41:03.078Z,19.73
2018-02-19T02:43:31.210Z,23.38
2018-02-19T02:45:59.334Z,19.33
2018-02-19T02:48:27.473Z,20.73
2018-02-19T02:50:55.608Z,20.73
2018-02-19T02:53:23.756Z,19.62
2018-02-19T02:55:51.896Z,19.50
2018-02-19T02:58:20.804Z,20.30
2018-02-19T03:00:49.695Z,19.60
2018-02-19T03:03:18.589Z,21.23
2018-02-19T03:05:46.721Z,21.35
2018-02-19T03:08:14.857Z,20.52
2018-02-19T03:10:42.984Z,21.70
2018-02-19T03:13:11.900Z,22.05
2018-02-19T03:15:40.035Z,19.08
2018-02-19T03:18:08.174Z,20.15
2018-02-19T03:20:36.296Z,21.58
2018-02-19T03:23:05.198Z,21.15
2018-02-19T03:25:33.325Z,21.15
2018-02-19T03:28:01.496Z,21.40
2018-02-19T03:30:29.588Z,19.45
2018-02-19T03:32:57.726Z,21.58
2018-02-19T03:35:25.890Z,22.27
2018-02-19T03:37:54.749Z,20.70
2018-02-19T03:40:22.898Z,21.87
2018-02-19T03:42:51.794Z,21.75
2018-02-19T03:45:20.701Z,21.35
2018-02-19T03:47:48.831Z,19.30
2018-02-19T03:50:17.319Z,19.90
2018-02-19T03:52:45.428Z,21.75
2018-02-19T03:55:13.562Z,20.25
2018-02-19T03:57:42.460Z,21.10
2018-02-19T04:00:11.359Z,20.70
2018-02-19T04:02:40.249Z,18.83
2018-02-19T04:05:08.389Z,20.23
2018-02-19T04:07:36.860Z,19.50
2018-02-19T04:10:04.995Z,18.70
2018-02-19T04:12:33.115Z,19.00
2018-02-19T04:15:01.261Z,18.98
2018-02-19T04:17:29.388Z,19.92
2018-02-19T04:19:57.533Z,18.12
2018-02-19T04:22:27.177Z,20.10
2018-02-19T04:24:55.308Z,19.77
2018-02-19T04:27:23.454Z,19.85
2018-02-19T04:29:51.585Z,18.33
2018-02-19T04:32:19.725Z,21.70
2018-02-19T04:34:47.849Z,20.33
2018-02-19T04:37:15.986Z,18.70
2018-02-19T04:39:44.967Z,20.58
2018-02-19T04:42:13.872Z,18.92
2018-02-19T04:44:42.007Z,18.65
2018-02-19T04:47:10.139Z,17.73
2018-02-19T04:49:38.273Z,24.37
2018-02-19T04:52:06.415Z,25.80
2018-02-19T04:54:34.918Z,26.80
2018-02-19T04:57:03.061Z,25.60
2018-02-19T04:59:31.185Z,26.05
2018-02-19T05:02:00.105Z,33.92
2018-02-19T05:04:28.233Z,22.40
2018-02-19T05:06:56.370Z,21.17
2018-02-19T05:09:24.597Z,18.83
2018-02-19T05:11:52.729Z,18.75
2018-02-19T05:14:20.898Z,17.10
2018-02-19T05:16:49.024Z,16.20
2018-02-19T05:19:17.179Z,19.25
2018-02-19T05:21:45.315Z,17.17
2018-02-19T05:24:13.452Z,18.05
2018-02-19T05:26:41.626Z,17.30
2018-02-19T05:29:09.834Z,16.80
2018-02-19T05:31:37.978Z,16.80
2018-02-19T05:34:06.122Z,17.37
2018-02-19T05:36:34.250Z,16.83
2018-02-19T05:39:02.385Z,17.58
2018-02-19T05:41:30.508Z,15.98
2018-02-19T05:43:59.416Z,16.92
2018-02-19T05:46:28.385Z,19.33
2018-02-19T05:48:57.295Z,18.52
2018-02-19T05:51:25.434Z,17.25
2018-02-19T05:53:53.553Z,18.20
2018-02-19T05:56:21.697Z,19.35
2018-02-19T05:58:50.589Z,16.25
2018-02-19T06:01:19.493Z,18.52
2018-02-19T06:03:47.628Z,17.27
2018-02-19T06:06:15.769Z,17.70
2018-02-19T06:08:43.896Z,18.15
2018-02-19T06:11:12.050Z,19.40
2018-02-19T06:13:40.170Z,15.63
2018-02-19T06:16:08.531Z,18.55
2018-02-19T06:18:36.692Z,16.85
2018-02-19T06:21:05.581Z,17.70
2018-02-19T06:23:33.705Z,16.58
2018-02-19T06:26:01.845Z,17.23
2018-02-19T06:28:29.973Z,18.02
2018-02-19T06:30:58.880Z,18.40
2018-02-19T06:33:27.005Z,19.30
2018-02-19T06:35:55.240Z,19.80
2018-02-19T06:38:23.363Z,19.58
2018-02-19T06:40:51.511Z,17.65
2018-02-19T06:43:20.016Z,19.35
2018-02-19T06:45:48.896Z,17.00
2018-02-19T06:48:17.339Z,18.35
2018-02-19T06:50:45.473Z,17.67
2018-02-19T06:53:14.365Z,18.55
2018-02-19T06:55:43.289Z,18.83
2018-02-19T06:58:11.421Z,16.65
2018-02-19T07:00:40.312Z,18.37
2018-02-19T07:03:09.221Z,18.30
2018-02-19T07:05:37.362Z,19.23
2018-02-19T07:08:05.500Z,18.20
2018-02-19T07:10:33.621Z,19.77
2018-02-19T07:13:01.767Z,16.92
2018-02-19T07:15:29.893Z,18.35
2018-02-19T07:17:58.032Z,17.42
2018-02-19T07:20:26.163Z,18.75
2018-02-19T07:22:54.307Z,17.85
2018-02-19T07:25:22.434Z,17.45
2018-02-19T07:27:51.337Z,17.30
2018-02-19T07:30:20.277Z,17.15
2018-02-19T07:32:48.445Z,15.32
2018-02-19T07:35:16.561Z,15.07
2018-02-19T07:37:45.467Z,14.98
2018-02-19T07:40:13.602Z,15.20
2018-02-19T07:42:41.742Z,14.75
2018-02-19T07:45:09.884Z,13.85
2018-02-19T07:47:38.068Z,13.80
2018-02-19T07:50:06.206Z,12.68
2018-02-19T07:52:35.089Z,12.18
2018-02-19T07:55:03.291Z,11.60
2018-02-19T07:57:31.430Z,13.77
2018-02-19T07:59:59.571Z,14.43
2018-02-19T08:02:27.742Z,13.63
2018-02-19T08:04:55.877Z,13.40
2018-02-19T08:07:24.003Z,14.83
2018-02-19T08:09:52.141Z,12.90
2018-02-19T08:12:20.273Z,13.53
2018-02-19T08:14:48.425Z,13.75
2018-02-19T08:17:16.554Z,12.60
2018-02-19T08:19:44.718Z,11.70
2018-02-19T08:22:12.853Z,12.27
2018-02-19T08:24:41.841Z,12.50
2018-02-19T08:27:09.928Z,13.70
2018-02-19T08:29:38.112Z,13.87
2018-02-19T08:32:06.353Z,13.47
2018-02-19T08:34:35.299Z,11.83
2018-02-19T08:37:03.390Z,13.35
2018-02-19T08:39:31.548Z,13.45
2018-02-19T08:41:59.685Z,11.32
2018-02-19T08:44:27.832Z,12.90
2018-02-19T08:46:56.731Z,14.15
2018-02-19T08:49:25.640Z,12.88
2018-02-19T08:51:53.757Z,12.27
2018-02-19T08:54:21.909Z,13.10
2018-02-19T08:56:50.053Z,13.05
2018-02-19T08:59:18.177Z,11.55
2018-02-19T09:01:46.320Z,15.20
2018-02-19T09:04:14.441Z,11.50
2018-02-19T09:06:43.345Z,11.55
2018-02-19T09:09:11.477Z,10.40
2018-02-19T09:11:39.629Z,12.73
2018-02-19T09:14:07.742Z,12.45
2018-02-19T09:16:36.643Z,11.77
2018-02-19T09:19:05.549Z,11.40
2018-02-19T09:21:33.708Z,12.93
2018-02-19T09:24:02.594Z,11.90
2018-02-19T09:26:31.205Z,11.63
2018-02-19T09:28:59.363Z,12.82
2018-02-19T09:31:27.510Z,13.23
2018-02-19T09:33:55.630Z,13.48
2018-02-19T09:36:23.757Z,13.13
2018-02-19T09:38:51.889Z,11.95
2018-02-19T09:41:20.042Z,14.02
2018-02-19T09:43:48.177Z,13.48
2018-02-19T09:46:17.060Z,12.37
2018-02-19T09:48:45.189Z,13.00
2018-02-19T09:51:13.314Z,13.02
2018-02-19T09:53:41.450Z,11.85
2018-02-19T09:56:09.565Z,12.82
2018-02-19T09:58:37.725Z,13.35
2018-02-19T10:01:05.957Z,12.20
2018-02-19T10:03:34.273Z,12.40
2018-02-19T10:06:02.409Z,13.02
2018-02-19T10:08:30.553Z,14.25
2018-02-19T10:10:58.773Z,13.60
2018-02-19T10:13:27.673Z,15.18
2018-02-19T10:15:55.889Z,12.98
2018-02-19T10:18:24.032Z,13.25
2018-02-19T10:20:52.149Z,11.90
2018-02-19T10:23:20.300Z,12.50
2018-02-19T10:25:48.417Z,13.10
2018-02-19T10:28:17.318Z,13.45
2018-02-19T10:30:45.540Z,12.65
2018-02-19T10:33:13.665Z,12.90
2018-02-19T10:35:41.803Z,12.00
2018-02-19T10:38:09.937Z,12.45
2018-02-19T10:40:38.074Z,12.55
2018-02-19T10:43:06.976Z,12.05
2018-02-19T10:45:35.166Z,11.23
2018-02-19T10:48:03.321Z,11.50
2018-02-19T10:50:31.456Z,11.12
2018-02-19T10:52:59.578Z,14.80
2018-02-19T10:55:27.717Z,13.85
2018-02-19T10:57:55.842Z,12.40
2018-02-19T11:00:29.680Z,12.63
2018-02-19T11:02:57.880Z,12.20
2018-02-19T11:05:26.032Z,11.50
2018-02-19T11:07:54.165Z,11.38
2018-02-19T11:10:22.300Z,11.63
2018-02-19T11:12:50.426Z,11.90
2018-02-19T11:15:18.571Z,11.98
2018-02-19T11:17:46.732Z,12.55
2018-02-19T11:20:14.888Z,12.30
2018-02-19T11:22:43.009Z,12.18
2018-02-19T11:25:11.157Z,12.27
2018-02-19T11:27:39.274Z,12.57
2018-02-19T11:30:07.424Z,11.40
2018-02-19T11:32:35.640Z,13.18
2018-02-19T11:35:03.780Z,12.13
2018-02-19T11:37:31.913Z,12.30
2018-02-19T11:40:00.137Z,11.15
2018-02-19T11:42:29.033Z,13.68
2018-02-19T11:44:57.158Z,15.73
2018-02-19T11:47:26.098Z,12.85
2018-02-19T11:49:54.239Z,13.90
2018-02-19T11:52:22.415Z,11.45
2018-02-19T11:54:50.542Z,13.05
2018-02-19T11:57:18.680Z,12.55
2018-02-19T11:59:46.822Z,12.45
2018-02-19T12:02:14.969Z,12.40
2018-02-19T12:04:43.105Z,12.20
2018-02-19T12:07:11.278Z,11.93
2018-02-19T12:09:39.434Z,13.17
2018-02-19T12:12:07.600Z,12.70
2018-02-19T12:14:35.714Z,12.37
2018-02-19T12:17:03.861Z,12.40
2018-02-19T12:19:31.976Z,11.57
2018-02-19T12:22:00.121Z,11.40
2018-02-19T12:24:28.249Z,11.80
2018-02-19T12:26:56.414Z,13.53
2018-02-19T12:29:24.540Z,11.27
2018-02-19T12:31:52.795Z,13.10
2018-02-19T12:34:21.069Z,13.80
2018-02-19T12:36:49.251Z,12.98
2018-02-19T12:39:17.374Z,12.33
2018-02-19T12:41:45.501Z,12.10
2018-02-19T12:44:13.636Z,12.10
2018-02-19T12:46:41.761Z,10.53
2018-02-19T12:49:09.952Z,11.50
2018-02-19T12:51:39.577Z,13.43
2018-02-19T12:54:08.599Z,12.88
2018-02-19T12:56:36.724Z,13.50
2018-02-19T12:59:04.864Z,13.35
2018-02-19T13:01:33.111Z,12.32
2018-02-19T13:04:01.289Z,11.32
2018-02-19T13:06:29.425Z,12.32
2018-02-19T13:08:57.786Z,13.70
2018-02-19T13:11:26.012Z,13.57
2018-02-19T13:13:54.152Z,11.82
2018-02-19T13:16:22.293Z,12.20
2018-02-19T13:18:50.413Z,12.88
2018-02-19T13:21:18.630Z,16.27
2018-02-19T13:23:46.794Z,15.65
2018-02-19T13:26:14.924Z,13.20
2018-02-19T13:28:43.070Z,13.55
2018-02-19T13:31:11.213Z,13.20
2018-02-19T13:33:39.361Z,12.55
2018-02-19T13:36:07.514Z,12.80
2018-02-19T13:38:35.645Z,11.75
2018-02-19T13:41:03.840Z,12.43
2018-02-19T13:43:31.924Z,12.88
2018-02-19T13:46:00.071Z,12.20
2018-02-19T13:48:28.975Z,12.63
2018-02-19T13:50:57.865Z,11.77
2018-02-19T13:53:26.781Z,12.85
2018-02-19T13:55:54.926Z,12.10
2018-02-19T13:58:23.813Z,13.00
2018-02-19T14:00:52.793Z,11.93
2018-02-19T14:03:21.687Z,12.23
2018-02-19T14:05:50.589Z,12.68
2018-02-19T14:08:18.983Z,12.63
2018-02-19T14:10:47.120Z,12.37
2018-02-19T14:13:15.301Z,12.75
2018-02-19T14:15:44.210Z,10.95
2018-02-19T14:18:12.331Z,11.27
2018-02-19T14:20:40.462Z,12.68
2018-02-19T14:23:08.622Z,11.57
2018-02-19T14:25:36.758Z,11.90
2018-02-19T14:28:04.903Z,12.45
2018-02-19T14:30:33.094Z,12.68
2018-02-19T14:33:01.255Z,11.73
2018-02-19T14:35:29.381Z,11.82
2018-02-19T14:37:57.559Z,12.10
2018-02-19T14:40:26.452Z,12.88
2018-02-19T14:42:54.646Z,11.68
2018-02-19T14:45:22.729Z,12.98
2018-02-19T14:47:50.901Z,12.93
2018-02-19T14:50:19.026Z,12.00
2018-02-19T14:52:47.157Z,12.60
2018-02-19T14:55:15.277Z,13.85
2018-02-19T14:57:43.418Z,12.77
2018-02-19T15:00:11.617Z,13.20
2018-02-19T15:02:39.769Z,14.32
2018-02-19T15:05:07.949Z,11.85
2018-02-19T15:07:36.083Z,12.20
2018-02-19T15:10:04.310Z,12.25
2018-02-19T15:12:32.448Z,13.85
2018-02-19T15:15:00.581Z,12.88
2018-02-19T15:17:28.734Z,13.77
2018-02-19T15:19:56.934Z,13.85
2018-02-19T15:22:25.072Z,13.13
2018-02-19T15:24:53.233Z,13.57
2018-02-19T15:27:21.358Z,13.57
2018-02-19T15:29:49.511Z,12.43
2018-02-19T15:32:17.630Z,13.15
2018-02-19T15:34:45.786Z,11.85
2018-02-19T15:37:13.927Z,13.05
2018-02-19T15:39:42.050Z,12.82
2018-02-19T15:42:10.937Z,12.48
2018-02-19T15:44:39.096Z,13.20
2018-02-19T15:47:07.997Z,13.85
2018-02-19T15:49:36.144Z,12.95
2018-02-19T15:52:05.818Z,13.52
2018-02-19T15:54:33.969Z,14.55
2018-02-19T15:57:02.126Z,12.75
2018-02-19T15:59:30.257Z,13.45
2018-02-19T16:01:58.369Z,15.23
2018-02-19T16:04:26.489Z,12.80
2018-02-19T16:06:54.627Z,15.27
2018-02-19T16:09:22.752Z,14.63
2018-02-19T16:11:50.889Z,13.75
2018-02-19T16:14:19.007Z,15.13
2018-02-19T16:16:47.247Z,15.10
2018-02-19T16:19:15.369Z,15.35
2018-02-19T16:21:43.538Z,15.35
2018-02-19T16:24:11.670Z,16.12
2018-02-19T16:26:39.819Z,16.15
2018-02-19T16:29:07.949Z,15.82
2018-02-19T16:31:36.852Z,15.73
2018-02-19T16:34:04.986Z,17.12
2018-02-19T16:36:33.204Z,16.77
2018-02-19T16:39:01.425Z,15.88
2018-02-19T16:41:29.581Z,16.87
2018-02-19T16:43:57.768Z,16.40
2018-02-19T16:46:25.905Z,15.40
2018-02-19T16:48:54.049Z,18.45
2018-02-19T16:51:22.185Z,15.55
2018-02-19T16:53:51.830Z,16.27
2018-02-19T16:56:19.975Z,18.30
2018-02-19T16:58:48.115Z,19.00
2018-02-19T17:01:16.315Z,18.95
2018-02-19T17:03:44.448Z,19.02
2018-02-19T17:06:12.615Z,17.23
2018-02-19T17:08:40.753Z,19.80
2018-02-19T17:11:08.941Z,19.70
2018-02-19T17:13:37.840Z,20.35
2018-02-19T17:16:05.995Z,20.98
2018-02-19T17:18:34.133Z,22.58
2018-02-19T17:21:02.271Z,20.45
2018-02-19T17:23:30.424Z,21.15
2018-02-19T17:25:58.552Z,21.33
2018-02-19T17:28:26.698Z,23.73
2018-02-19T17:30:54.913Z,26.20
2018-02-19T17:33:23.066Z,26.00
2018-02-19T17:35:51.189Z,24.37
2018-02-19T17:38:19.336Z,23.80
2018-02-19T17:40:47.466Z,20.45
2018-02-19T17:43:15.613Z,22.55
2018-02-19T17:45:43.748Z,22.60
2018-02-19T17:48:11.889Z,22.00
2018-02-19T17:50:40.778Z,21.35
2018-02-19T17:53:09.278Z,21.17
2018-02-19T17:55:38.159Z,20.77
2018-02-19T17:58:07.168Z,22.05
2018-02-19T18:00:35.315Z,22.33
2018-02-19T18:03:03.440Z,20.98
2018-02-19T18:05:31.702Z,22.80
2018-02-19T18:08:00.257Z,22.40
2018-02-19T18:10:29.189Z,24.12
2018-02-19T18:12:57.314Z,23.15
2018-02-19T18:15:26.223Z,22.90
2018-02-19T18:17:54.351Z,22.60
2018-02-19T18:20:22.500Z,21.45
2018-02-19T18:22:50.654Z,19.17
2018-02-19T18:25:18.795Z,20.40
2018-02-19T18:27:46.922Z,21.33
2018-02-19T18:30:15.126Z,24.50
2018-02-19T18:32:44.022Z,25.55
2018-02-19T18:35:12.929Z,25.17
2018-02-19T18:37:41.059Z,23.85
2018-02-19T18:40:09.199Z,19.62
2018-02-19T18:42:37.341Z,22.70
2018-02-19T18:45:05.466Z,20.65
2018-02-19T18:47:33.649Z,20.42
2018-02-19T18:50:01.784Z,20.98
2018-02-19T18:52:29.931Z,21.55
2018-02-19T18:54:58.074Z,24.10
2018-02-19T18:57:26.222Z,21.48
2018-02-19T18:59:54.353Z,24.25
2018-02-19T19:02:22.539Z,27.45
2018-02-19T19:04:50.635Z,24.98
2018-02-19T19:07:30.533Z,29.52
2018-02-19T19:10:11.919Z,29.27
2018-02-19T19:12:42.772Z,25.98
2018-02-19T19:15:14.596Z,25.62
2018-02-19T19:17:44.718Z,20.55
2018-02-19T19:20:13.678Z,23.17
2018-02-19T19:22:41.827Z,30.75
2018-02-19T19:25:09.949Z,40.55
2018-02-19T19:27:39.000Z,31.40
2018-02-19T19:30:07.133Z,24.75
2018-02-19T19:32:35.273Z,23.80
2018-02-19T19:35:04.370Z,25.17
2018-02-19T19:37:32.579Z,22.87
2018-02-19T19:40:00.708Z,26.55
2018-02-19T19:42:29.982Z,27.25
2018-02-19T19:44:58.098Z,28.40
2018-02-19T19:47:26.220Z,24.40
2018-02-19T19:49:54.425Z,27.02
2018-02-19T19:52:23.685Z,24.12
2018-02-19T19:54:51.817Z,23.15
2018-02-19T19:57:19.945Z,23.30
2018-02-19T19:59:48.120Z,24.60
2018-02-19T20:02:17.073Z,25.15
2018-02-19T20:04:46.173Z,23.87
2018-02-19T20:07:15.137Z,25.52
2018-02-19T20:09:43.428Z,24.92
2018-02-19T20:12:11.578Z,26.10
2018-02-19T20:14:39.789Z,26.17
2018-02-19T20:17:08.877Z,25.45
2018-02-19T20:19:37.164Z,29.80
2018-02-19T20:22:05.330Z,30.15
2018-02-19T20:24:33.494Z,27.75
2018-02-19T20:27:01.632Z,27.20
2018-02-19T20:29:29.849Z,28.12
2018-02-19T20:31:58.113Z,30.85
2018-02-19T20:34:27.237Z,32.70
2018-02-19T20:36:55.429Z,29.83
2018-02-19T20:39:24.364Z,24.80
2018-02-19T20:41:52.511Z,26.30
2018-02-19T20:44:20.657Z,25.75
2018-02-19T20:46:48.936Z,23.50
2018-02-19T20:49:17.834Z,24.50
2018-02-19T20:51:46.897Z,27.58
2018-02-19T20:54:15.980Z,26.58
2018-02-19T20:56:44.273Z,24.52
2018-02-19T20:59:12.441Z,25.05
2018-02-19T21:01:41.364Z,27.65
2018-02-19T21:04:10.269Z,27.30
2018-02-19T21:06:38.416Z,29.33
2018-02-19T21:09:07.645Z,33.35
2018-02-19T21:11:36.990Z,42.13
2018-02-19T21:14:07.534Z,33.65
2018-02-19T21:16:37.557Z,27.20
2018-02-19T21:19:07.055Z,31.25
2018-02-19T21:21:37.125Z,32.58
2018-02-19T21:24:06.569Z,31.50
2018-02-19T21:26:35.153Z,30.52
2018-02-19T21:29:03.719Z,29.02
2018-02-19T21:31:32.271Z,26.90
2018-02-19T21:34:00.588Z,27.62
2018-02-19T21:36:28.748Z,26.45
2018-02-19T21:38:57.146Z,26.30
2018-02-19T21:41:26.897Z,27.15
2018-02-19T21:43:55.065Z,25.30
2018-02-19T21:46:23.225Z,23.30
2018-02-19T21:48:51.364Z,27.08
2018-02-19T21:51:19.516Z,25.10
2018-02-19T21:53:47.729Z,26.42
2018-02-19T21:56:16.637Z,26.65
2018-02-19T21:58:44.827Z,29.67
2018-02-19T22:01:12.971Z,26.58
2018-02-19T22:03:41.122Z,26.75
2018-02-19T22:06:10.013Z,26.50
2018-02-19T22:08:38.937Z,27.62
2018-02-19T22:11:07.157Z,28.08
2018-02-19T22:13:35.333Z,26.27
2018-02-19T22:16:03.478Z,25.98
2018-02-19T22:18:31.655Z,26.05
2018-02-19T22:21:00.876Z,26.83
2018-02-19T22:23:29.017Z,27.48
2018-02-19T22:25:57.146Z,27.30
2018-02-19T22:28:26.098Z,26.80
2018-02-19T22:30:54.213Z,28.23
2018-02-19T22:33:22.384Z,29.00
2018-02-19T22:35:50.561Z,27.52
2018-02-19T22:38:18.741Z,25.92
2018-02-19T22:40:47.009Z,26.85
2018-02-19T22:43:15.149Z,28.08
2018-02-19T22:45:43.300Z,26.55
2018-02-19T22:48:11.533Z,26.92
2018-02-19T22:50:39.692Z,25.88
2018-02-19T22:53:09.021Z,26.45
2018-02-19T22:55:37.165Z,22.23
2018-02-19T22:58:05.305Z,24.55
2018-02-19T23:00:33.479Z,25.37
2018-02-19T23:03:01.611Z,25.48
2018-02-19T23:05:29.765Z,27.48
2018-02-19T23:07:57.926Z,25.37
2018-02-19T23:10:26.100Z,25.27
2018-02-19T23:12:54.229Z,27.85
2018-02-19T23:15:22.389Z,26.83
2018-02-19T23:17:50.527Z,23.52
2018-02-19T23:20:19.374Z,24.40
2018-02-19T23:22:47.505Z,28.05
2018-02-19T23:25:15.628Z,29.95
2018-02-19T23:27:44.553Z,25.95
2018-02-19T23:30:12.679Z,24.42
2018-02-19T23:32:41.586Z,30.50
2018-02-19T23:35:09.744Z,29.52
2018-02-19T23:37:37.852Z,30.85
2018-02-19T23:40:05.976Z,27.13
2018-02-19T23:42:34.121Z,26.15
2018-02-19T23:45:02.254Z,25.58
2018-02-19T23:47:30.398Z,28.38
2018-02-19T23:49:59.298Z,24.42
2018-02-19T23:52:28.205Z,26.77
2018-02-19T23:54:56.341Z,26.00
2018-02-19T23:57:25.126Z,28.12
2018-02-19T23:59:53.293Z,25.20
